Time;durP1;ratioP1;P1;durP2;ratioP2;P2;SDS_P1;SDS_P2;PMS_P1;PMS_P2;Temp;Humidity;BMP_temperature;BMP_pressure;BME280_temperature;BME280_humidity;BME280_pressure;Samples;Min_cycle;Max_cycle;Signal;HPM_P1;HPM_P2
2022/03/09 00:01:04;;;;;;;10.23;8.67;;;-0.90;99.90;;;;;;5061217;28;20620;-76
2022/03/09 00:03:30;;;;;;;10.40;8.47;;;-1.00;99.90;;;;;;5065235;28;20203;-75
2022/03/09 00:05:55;;;;;;;10.40;7.97;;;-1.10;99.90;;;;;;5068598;28;20662;-75
2022/03/09 00:08:21;;;;;;;10.27;8.13;;;-1.20;99.90;;;;;;5067524;28;20234;-74
2022/03/09 00:10:47;;;;;;;11.33;7.70;;;-1.20;99.90;;;;;;5065363;28;20312;-74
2022/03/09 00:13:13;;;;;;;12.57;8.50;;;-1.20;99.90;;;;;;5068898;28;20209;-75
2022/03/09 00:15:38;;;;;;;11.60;8.90;;;-1.20;99.90;;;;;;5063097;28;20267;-75
2022/03/09 00:18:04;;;;;;;11.73;8.50;;;-1.20;99.90;;;;;;5060813;28;20658;-76
2022/03/09 00:20:30;;;;;;;9.13;8.13;;;-1.20;99.90;;;;;;5065221;28;20179;-76
2022/03/09 00:22:55;;;;;;;11.73;9.23;;;-1.20;99.90;;;;;;5065977;28;20207;-75
2022/03/09 00:25:21;;;;;;;12.07;8.67;;;-1.20;99.90;;;;;;5067054;28;20671;-75
2022/03/09 00:27:46;;;;;;;12.13;8.97;;;-1.30;99.90;;;;;;5061610;28;20242;-75
2022/03/09 00:30:12;;;;;;;12.30;8.10;;;-1.30;99.90;;;;;;5064504;28;20184;-75
2022/03/09 00:32:39;;;;;;;9.60;8.40;;;-1.30;99.90;;;;;;5061852;28;20268;-75
2022/03/09 00:35:06;;;;;;;12.07;9.27;;;-1.30;99.90;;;;;;5069281;28;20180;-75
2022/03/09 00:37:32;;;;;;;10.47;7.73;;;-1.30;99.90;;;;;;5068363;28;20666;-75
2022/03/09 00:39:57;;;;;;;10.03;8.27;;;-1.30;99.90;;;;;;5062532;28;20176;-75
2022/03/09 00:42:23;;;;;;;14.00;8.27;;;-1.30;99.90;;;;;;5068151;28;20195;-75
2022/03/09 00:44:48;;;;;;;10.83;8.13;;;-1.20;99.90;;;;;;5059895;28;20211;-75
2022/03/09 00:47:14;;;;;;;10.93;8.80;;;-1.10;99.90;;;;;;5061850;28;20213;-75
2022/03/09 00:49:39;;;;;;;10.37;7.83;;;-1.00;99.90;;;;;;5062875;28;20184;-75
2022/03/09 00:52:05;;;;;;;10.50;7.57;;;-1.00;99.90;;;;;;5071247;28;20188;-75
2022/03/09 00:54:31;;;;;;;11.43;8.80;;;-1.00;99.90;;;;;;5064963;28;20194;-75
2022/03/09 00:56:57;;;;;;;12.03;7.90;;;-1.10;99.90;;;;;;5059893;28;20175;-75
2022/03/09 00:59:22;;;;;;;11.63;8.53;;;-1.10;99.90;;;;;;5065338;28;20210;-76
2022/03/09 01:01:48;;;;;;;10.40;8.17;;;-1.10;99.90;;;;;;5068332;28;20266;-76
2022/03/09 01:04:13;;;;;;;10.10;8.23;;;-1.10;99.90;;;;;;5061123;28;20559;-77
2022/03/09 01:06:39;;;;;;;12.27;8.50;;;-1.10;99.90;;;;;;5069052;28;20199;-76
2022/03/09 01:09:04;;;;;;;10.40;7.93;;;-1.20;99.90;;;;;;5065400;28;20187;-75
2022/03/09 01:11:30;;;;;;;9.03;8.03;;;-1.10;99.90;;;;;;5071984;28;20175;-76
2022/03/09 01:13:57;;;;;;;9.50;7.93;;;-1.10;99.90;;;;;;5069673;28;20206;-76
2022/03/09 01:16:22;;;;;;;12.10;8.87;;;-1.10;99.90;;;;;;5067920;28;20210;-75
2022/03/09 01:18:48;;;;;;;10.33;8.83;;;-1.20;99.90;;;;;;5067417;28;20191;-74
2022/03/09 01:21:14;;;;;;;9.77;8.43;;;-1.40;99.90;;;;;;5065375;28;20237;-76
2022/03/09 01:23:39;;;;;;;11.70;8.80;;;-1.50;99.90;;;;;;5064404;28;20572;-76
2022/03/09 01:26:05;;;;;;;11.43;8.27;;;-1.50;99.90;;;;;;5063391;28;20275;-76
2022/03/09 01:28:31;;;;;;;11.20;8.33;;;-1.60;99.90;;;;;;5064549;28;20198;-76
2022/03/09 01:30:56;;;;;;;10.87;8.10;;;-1.70;99.90;;;;;;5067816;28;20176;-74
2022/03/09 01:33:22;;;;;;;11.73;9.17;;;-1.70;99.90;;;;;;5062774;28;20270;-75
2022/03/09 01:35:47;;;;;;;11.20;8.60;;;-1.80;99.90;;;;;;5060016;28;20183;-74
2022/03/09 01:38:13;;;;;;;9.77;7.87;;;-1.80;99.90;;;;;;5069664;28;20182;-74
2022/03/09 01:40:39;;;;;;;11.47;8.57;;;-1.80;99.90;;;;;;5070037;28;20232;-74
2022/03/09 01:43:04;;;;;;;12.97;8.03;;;-1.80;99.90;;;;;;5063855;28;20335;-76
2022/03/09 01:45:31;;;;;;;9.87;7.90;;;-1.70;99.90;;;;;;5054891;28;20286;-77
2022/03/09 01:47:56;;;;;;;10.40;8.37;;;-1.60;99.90;;;;;;5068739;28;20685;-76
2022/03/09 01:50:22;;;;;;;10.67;7.73;;;-1.50;99.90;;;;;;5066562;28;20176;-76
2022/03/09 01:52:48;;;;;;;9.83;8.50;;;-1.40;99.90;;;;;;5066742;28;20195;-76
2022/03/09 01:55:14;;;;;;;10.67;8.93;;;-1.50;99.90;;;;;;5063664;28;20191;-75
2022/03/09 01:57:41;;;;;;;11.10;8.63;;;-1.60;99.90;;;;;;5070276;28;20171;-76
2022/03/09 02:00:08;;;;;;;15.93;9.23;;;-1.60;99.90;;;;;;5064835;28;20171;-75
2022/03/09 02:02:33;;;;;;;12.03;8.27;;;-1.70;99.90;;;;;;5062674;28;20203;-74
2022/03/09 02:04:59;;;;;;;11.43;8.47;;;-1.90;99.90;;;;;;5060396;28;20267;-74
2022/03/09 02:10:10;;;;;;;8.17;7.30;;;-1.90;99.90;;;;;;5062226;28;20190;-74
2022/03/09 02:12:36;;;;;;;10.37;8.43;;;-1.80;99.90;;;;;;5064032;28;20211;-74
2022/03/09 02:15:03;;;;;;;9.53;8.30;;;-1.90;99.90;;;;;;5069260;28;20633;-74
2022/03/09 02:17:29;;;;;;;9.17;8.07;;;-1.80;99.90;;;;;;5059457;28;20176;-74
2022/03/09 02:19:56;;;;;;;13.67;8.83;;;-1.90;99.90;;;;;;5058945;28;20183;-74
2022/03/09 02:22:37;;;;;;;10.77;8.50;;;-2.00;99.90;;;;;;5061869;28;20300;-74
2022/03/09 02:25:11;;;;;;;9.83;7.50;;;-2.10;99.90;;;;;;5052646;28;20701;-74
2022/03/09 02:27:37;;;;;;;10.43;8.30;;;-2.20;99.90;;;;;;5063553;28;20183;-74
2022/03/09 02:30:03;;;;;;;11.33;8.17;;;-2.20;99.90;;;;;;5063884;28;20186;-74
2022/03/09 02:32:29;;;;;;;9.73;8.10;;;-2.10;99.90;;;;;;5059965;28;20683;-76
2022/03/09 02:34:55;;;;;;;11.07;8.60;;;-2.10;99.90;;;;;;5067812;28;20274;-74
2022/03/09 02:37:21;;;;;;;10.53;7.83;;;-2.10;99.90;;;;;;5066363;28;20183;-75
2022/03/09 02:39:47;;;;;;;10.43;8.00;;;-2.20;99.90;;;;;;5063098;28;20661;-74
2022/03/09 02:42:13;;;;;;;10.83;8.47;;;-2.20;99.90;;;;;;5065292;28;20252;-75
2022/03/09 02:44:40;;;;;;;12.10;8.07;;;-2.20;99.90;;;;;;5061306;28;20186;-75
2022/03/09 02:47:05;;;;;;;10.43;7.83;;;-2.10;99.90;;;;;;5061409;28;20195;-74
2022/03/09 02:49:31;;;;;;;9.60;6.83;;;-2.10;99.90;;;;;;5075120;28;20198;-74
2022/03/09 02:51:58;;;;;;;12.60;9.33;;;-2.00;99.90;;;;;;5061944;28;20211;-74
2022/03/09 02:54:23;;;;;;;10.20;8.00;;;-2.00;99.90;;;;;;5066224;28;20187;-75
2022/03/09 02:56:49;;;;;;;9.27;7.93;;;-1.90;99.90;;;;;;5063792;28;20680;-75
2022/03/09 02:59:15;;;;;;;8.93;7.57;;;-1.90;99.90;;;;;;5069131;28;20191;-76
2022/03/09 03:01:41;;;;;;;11.03;7.73;;;-1.90;99.90;;;;;;5067835;28;20180;-76
2022/03/09 03:04:06;;;;;;;13.83;8.00;;;-2.00;99.90;;;;;;5061665;28;20204;-75
2022/03/09 03:06:32;;;;;;;8.07;7.27;;;-2.10;99.90;;;;;;5063267;28;20263;-74
2022/03/09 03:08:58;;;;;;;8.40;7.40;;;-2.00;99.90;;;;;;5073060;28;20176;-75
2022/03/09 03:11:23;;;;;;;10.63;8.07;;;-2.00;99.90;;;;;;5070149;28;20758;-75
2022/03/09 03:13:49;;;;;;;10.73;8.20;;;-2.10;99.90;;;;;;5072022;28;20510;-75
2022/03/09 03:16:16;;;;;;;10.20;8.33;;;-2.10;99.90;;;;;;5071162;28;20213;-75
2022/03/09 03:18:41;;;;;;;10.87;8.37;;;-2.30;99.90;;;;;;5068708;28;20642;-75
2022/03/09 03:21:07;;;;;;;12.13;8.80;;;-2.40;99.90;;;;;;5065012;28;20270;-76
2022/03/09 03:23:34;;;;;;;12.53;8.43;;;-2.50;99.90;;;;;;5070437;28;20544;-76
2022/03/09 03:26:02;;;;;;;12.90;8.50;;;-2.50;99.90;;;;;;5070876;28;20260;-77
2022/03/09 03:28:28;;;;;;;13.43;9.63;;;-2.60;99.90;;;;;;5071055;28;20179;-75
2022/03/09 03:30:54;;;;;;;11.10;8.77;;;-2.70;99.90;;;;;;5064748;28;20178;-75
2022/03/09 03:33:20;;;;;;;10.10;8.87;;;-2.70;99.90;;;;;;5058752;28;20210;-76
2022/03/09 03:35:47;;;;;;;9.67;8.27;;;-2.60;99.90;;;;;;5066212;28;20195;-76
2022/03/09 03:38:13;;;;;;;10.17;8.63;;;-2.70;99.90;;;;;;5061936;28;20192;-78
2022/03/09 03:40:39;;;;;;;14.23;8.17;;;-2.70;99.90;;;;;;5068334;28;20260;-75
2022/03/09 03:43:06;;;;;;;11.17;8.43;;;-2.80;99.90;;;;;;5069720;28;20245;-75
2022/03/09 03:45:31;;;;;;;12.23;8.63;;;-2.80;99.90;;;;;;5061906;28;20651;-74
2022/03/09 03:47:57;;;;;;;10.27;8.53;;;-2.80;99.90;;;;;;5061796;28;20270;-75
2022/03/09 03:50:23;;;;;;;10.67;8.17;;;-2.90;99.90;;;;;;5070589;28;20646;-75
2022/03/09 03:52:49;;;;;;;10.37;8.27;;;-2.90;99.90;;;;;;5064792;28;20266;-75
2022/03/09 03:55:15;;;;;;;9.20;8.30;;;-2.90;99.90;;;;;;5058197;28;20188;-75
2022/03/09 03:57:40;;;;;;;10.87;8.57;;;-2.80;99.90;;;;;;5058934;28;20203;-75
2022/03/09 04:00:08;;;;;;;9.33;8.33;;;-2.80;99.90;;;;;;5056851;28;20547;-74
2022/03/09 04:02:33;;;;;;;9.13;7.57;;;-2.70;99.90;;;;;;5059356;28;20226;-74
2022/03/09 04:04:59;;;;;;;9.87;8.23;;;-2.60;99.90;;;;;;5062860;28;20713;-77
2022/03/09 04:07:26;;;;;;;11.83;8.60;;;-2.60;99.90;;;;;;5071566;28;20207;-77
2022/03/09 04:09:51;;;;;;;12.57;9.30;;;-2.60;99.90;;;;;;5070509;28;20539;-77
2022/03/09 04:12:17;;;;;;;9.43;7.97;;;-2.60;99.90;;;;;;5058360;28;20198;-77
2022/03/09 04:14:43;;;;;;;8.93;7.77;;;-2.70;99.90;;;;;;5057131;28;20215;-77
2022/03/09 04:17:08;;;;;;;12.13;8.23;;;-2.60;99.90;;;;;;5079469;28;20672;-77
2022/03/09 04:19:34;;;;;;;10.60;8.87;;;-2.70;99.90;;;;;;5064163;28;20183;-78
2022/03/09 04:21:59;;;;;;;10.80;8.63;;;-2.70;99.90;;;;;;5062975;28;20270;-77
2022/03/09 04:24:25;;;;;;;9.30;8.23;;;-2.80;99.90;;;;;;5061947;28;20211;-77
2022/03/09 04:26:51;;;;;;;10.67;8.80;;;-2.80;99.90;;;;;;5060836;28;20243;-76
2022/03/09 04:29:17;;;;;;;9.17;8.23;;;-2.80;99.90;;;;;;5065318;28;20172;-77
2022/03/09 04:31:43;;;;;;;12.80;8.60;;;-2.80;99.90;;;;;;5069719;28;20186;-77
2022/03/09 04:34:08;;;;;;;9.87;8.27;;;-2.70;99.90;;;;;;5067677;28;20195;-77
2022/03/09 04:36:34;;;;;;;11.37;8.43;;;-2.60;99.90;;;;;;5064788;28;20187;-76
2022/03/09 04:39:00;;;;;;;9.30;7.90;;;-2.60;99.90;;;;;;5067072;28;20195;-77
2022/03/09 04:41:25;;;;;;;9.40;8.43;;;-2.70;99.90;;;;;;5065796;28;20187;-77
2022/03/09 04:43:51;;;;;;;10.13;8.40;;;-2.70;99.90;;;;;;5069512;28;20600;-77
2022/03/09 04:46:17;;;;;;;11.30;8.50;;;-2.70;99.90;;;;;;5063263;28;20198;-76
2022/03/09 04:48:43;;;;;;;9.27;8.10;;;-2.70;99.90;;;;;;5065426;28;20254;-78
2022/03/09 04:51:09;;;;;;;10.07;8.27;;;-2.80;99.90;;;;;;5060909;28;20544;-77
2022/03/09 04:53:35;;;;;;;9.00;8.00;;;-2.80;99.90;;;;;;5066137;28;20281;-77
2022/03/09 04:56:01;;;;;;;10.73;8.77;;;-2.80;99.90;;;;;;5066866;28;20206;-77
2022/03/09 04:58:26;;;;;;;10.43;9.33;;;-2.90;99.90;;;;;;5065773;28;20257;-77
2022/03/09 05:00:52;;;;;;;11.73;9.10;;;-2.80;99.90;;;;;;5067506;28;20199;-77
2022/03/09 05:03:18;;;;;;;13.00;8.77;;;-2.80;99.90;;;;;;5063197;28;20210;-77
2022/03/09 05:05:45;;;;;;;11.97;9.13;;;-2.90;99.90;;;;;;5068319;28;20207;-78
2022/03/09 05:08:10;;;;;;;9.47;7.30;;;-3.00;99.90;;;;;;5064580;28;20184;-78
2022/03/09 05:10:36;;;;;;;12.73;8.90;;;-3.10;99.90;;;;;;5067894;28;20549;-78
2022/03/09 05:13:03;;;;;;;12.00;8.93;;;-3.20;99.90;;;;;;5063057;28;20268;-77
2022/03/09 05:15:28;;;;;;;10.10;8.77;;;-3.20;99.90;;;;;;5064726;28;20186;-77
2022/03/09 05:17:54;;;;;;;10.77;8.77;;;-3.20;99.90;;;;;;5064219;28;20183;-77
2022/03/09 05:20:21;;;;;;;14.13;9.60;;;-3.30;99.90;;;;;;5064579;28;20191;-77
2022/03/09 05:22:47;;;;;;;9.43;7.93;;;-3.30;99.90;;;;;;5070534;28;20542;-77
2022/03/09 05:25:13;;;;;;;11.67;9.23;;;-3.30;99.90;;;;;;5063949;28;20269;-77
2022/03/09 05:27:40;;;;;;;14.43;9.30;;;-3.30;99.90;;;;;;5065658;28;20176;-77
2022/03/09 05:30:11;;;;;;;12.40;8.33;;;-3.30;99.90;;;;;;5069133;28;20204;-76
2022/03/09 05:32:37;;;;;;;12.50;9.57;;;-3.20;99.90;;;;;;5064201;28;20199;-77
2022/03/09 05:35:04;;;;;;;15.03;8.80;;;-3.20;99.90;;;;;;5071117;28;20202;-77
2022/03/09 05:37:43;;;;;;;8.93;7.97;;;-3.10;99.90;;;;;;5067197;28;20558;-76
2022/03/09 05:40:10;;;;;;;8.80;7.90;;;-3.20;99.90;;;;;;5069386;28;20707;-77
2022/03/09 05:42:37;;;;;;;15.33;8.97;;;-3.10;99.90;;;;;;5068628;28;20204;-77
2022/03/09 05:45:03;;;;;;;11.50;8.93;;;-3.20;99.90;;;;;;5064535;28;20199;-76
2022/03/09 05:47:29;;;;;;;13.37;9.80;;;-3.30;99.90;;;;;;5063913;28;20203;-76
2022/03/09 05:49:54;;;;;;;9.80;7.93;;;-3.40;99.90;;;;;;5077123;28;20182;-79
2022/03/09 05:52:20;;;;;;;12.53;8.97;;;-3.40;99.90;;;;;;5061841;28;20227;-80
2022/03/09 05:54:46;;;;;;;13.10;9.00;;;-3.40;99.90;;;;;;5063312;28;20259;-79
2022/03/09 05:57:12;;;;;;;10.77;9.60;;;-3.40;99.90;;;;;;5069723;28;20656;-77
2022/03/09 05:59:38;;;;;;;9.70;8.70;;;-3.40;99.90;;;;;;5074725;28;20184;-77
2022/03/09 06:02:04;;;;;;;12.33;8.90;;;-3.30;99.90;;;;;;5067695;28;20285;-77
2022/03/09 06:04:30;;;;;;;14.67;9.30;;;-3.20;99.90;;;;;;5062326;28;20576;-78
2022/03/09 06:06:55;;;;;;;12.33;8.73;;;-3.20;99.90;;;;;;5061698;28;20299;-78
2022/03/09 06:09:21;;;;;;;11.33;8.87;;;-3.10;99.90;;;;;;5063062;28;20714;-78
2022/03/09 06:11:47;;;;;;;10.23;9.13;;;-3.10;99.90;;;;;;5063433;28;20207;-77
2022/03/09 06:14:12;;;;;;;13.93;9.10;;;-3.10;99.90;;;;;;5065144;28;20204;-77
2022/03/09 06:16:38;;;;;;;12.10;9.07;;;-3.00;99.90;;;;;;5066199;28;20183;-77
2022/03/09 06:19:03;;;;;;;10.93;8.77;;;-2.90;99.90;;;;;;5065674;28;20195;-76
2022/03/09 06:21:29;;;;;;;10.97;9.00;;;-2.80;99.90;;;;;;5067107;28;20195;-77
2022/03/09 06:23:55;;;;;;;14.53;9.47;;;-2.80;99.90;;;;;;5059409;28;20261;-78
2022/03/09 06:26:20;;;;;;;13.00;9.50;;;-2.70;99.90;;;;;;5063208;28;20214;-77
2022/03/09 06:28:46;;;;;;;14.67;8.40;;;-2.60;99.90;;;;;;5066840;28;20183;-79
2022/03/09 06:31:11;;;;;;;10.80;8.67;;;-2.50;99.90;;;;;;5071456;28;20171;-78
2022/03/09 06:33:37;;;;;;;15.00;9.70;;;-2.50;99.90;;;;;;5065226;28;20297;-78
2022/03/09 06:36:06;;;;;;;10.27;8.37;;;-2.40;99.90;;;;;;5067373;28;20180;-79
2022/03/09 06:38:32;;;;;;;11.63;8.97;;;-2.40;99.90;;;;;;5064957;28;20652;-78
2022/03/09 06:40:57;;;;;;;10.37;8.20;;;-2.30;99.90;;;;;;5070398;28;20175;-79
2022/03/09 06:43:23;;;;;;;10.57;8.70;;;-2.20;99.90;;;;;;5062084;28;20433;-77
2022/03/09 06:45:49;;;;;;;9.60;8.60;;;-2.10;99.90;;;;;;5054989;28;20211;-77
2022/03/09 06:48:14;;;;;;;8.97;7.83;;;-2.00;99.90;;;;;;5068899;28;20274;-77
2022/03/09 06:50:40;;;;;;;17.47;8.90;;;-1.90;99.90;;;;;;5060778;28;20176;-77
2022/03/09 06:53:05;;;;;;;13.50;9.47;;;-1.80;99.90;;;;;;5060219;28;20605;-77
2022/03/09 06:55:31;;;;;;;10.70;8.77;;;-1.70;99.90;;;;;;5068365;28;20649;-77
2022/03/09 06:57:57;;;;;;;12.47;8.27;;;-1.60;99.90;;;;;;5067756;28;20172;-75
2022/03/09 07:00:22;;;;;;;11.03;9.70;;;-1.60;99.90;;;;;;5066662;28;20179;-76
2022/03/09 07:02:48;;;;;;;13.83;8.53;;;-1.50;99.90;;;;;;5067310;28;20204;-75
2022/03/09 07:05:14;;;;;;;12.37;8.40;;;-1.50;99.90;;;;;;5061730;28;20230;-74
2022/03/09 07:07:41;;;;;;;9.83;8.77;;;-1.40;99.90;;;;;;5063656;28;20207;-75
2022/03/09 07:10:11;;;;;;;12.53;9.07;;;-1.30;99.90;;;;;;5065491;28;20552;-74
2022/03/09 07:12:38;;;;;;;10.97;8.60;;;-1.20;99.90;;;;;;5053262;28;20192;-74
2022/03/09 07:15:04;;;;;;;10.50;8.63;;;-1.10;99.90;;;;;;5066293;28;20175;-75
2022/03/09 07:17:29;;;;;;;9.70;7.97;;;-1.00;99.90;;;;;;5071508;28;20638;-76
2022/03/09 07:19:55;;;;;;;10.40;7.33;;;-0.90;99.90;;;;;;5068052;28;20190;-74
2022/03/09 07:22:21;;;;;;;11.50;8.63;;;-0.90;99.90;;;;;;5063798;28;20207;-75
2022/03/09 07:24:48;;;;;;;11.00;9.43;;;-0.80;99.90;;;;;;5066300;28;20619;-75
2022/03/09 07:27:13;;;;;;;10.73;8.73;;;-0.70;99.90;;;;;;5063829;28;20276;-74
2022/03/09 07:29:39;;;;;;;10.37;8.20;;;-0.70;99.90;;;;;;5067973;28;20186;-73
2022/03/09 07:32:05;;;;;;;11.53;8.53;;;-0.70;99.90;;;;;;5061027;28;20180;-73
2022/03/09 07:34:31;;;;;;;10.60;8.53;;;-0.50;99.90;;;;;;5065779;28;20267;-74
2022/03/09 07:36:58;;;;;;;12.63;9.23;;;-0.50;99.90;;;;;;5066842;28;20278;-73
2022/03/09 07:39:28;;;;;;;13.50;9.30;;;-0.40;99.90;;;;;;5069096;28;20660;-74
2022/03/09 07:41:57;;;;;;;14.17;9.33;;;-0.40;99.90;;;;;;5069795;28;20803;-73
2022/03/09 07:44:23;;;;;;;13.67;9.50;;;-0.30;99.90;;;;;;5067975;28;20657;-75
2022/03/09 07:46:50;;;;;;;11.70;8.73;;;-0.20;99.90;;;;;;5069316;28;20297;-73
2022/03/09 07:49:16;;;;;;;12.10;8.97;;;-0.10;99.90;;;;;;5071400;28;20210;-74
2022/03/09 07:51:42;;;;;;;12.70;9.07;;;-0.10;99.90;;;;;;5066094;28;20180;-73
2022/03/09 07:54:08;;;;;;;10.30;8.63;;;0.00;99.90;;;;;;5067726;28;20218;-73
2022/03/09 07:56:35;;;;;;;10.50;8.83;;;0.00;99.90;;;;;;5059845;28;20206;-74
2022/03/09 07:59:02;;;;;;;8.13;7.33;;;0.10;99.90;;;;;;5071132;28;20276;-74
2022/03/09 08:01:28;;;;;;;10.23;7.73;;;0.20;99.90;;;;;;5063177;28;20206;-73
2022/03/09 08:03:54;;;;;;;11.37;8.57;;;0.40;99.90;;;;;;5065871;28;20203;-71
2022/03/09 08:06:20;;;;;;;13.07;9.07;;;0.40;99.90;;;;;;5065604;28;20244;-72
2022/03/09 08:08:46;;;;;;;9.67;7.97;;;0.50;99.90;;;;;;5069139;28;20234;-73
2022/03/09 08:11:12;;;;;;;9.07;8.13;;;0.60;99.90;;;;;;5066077;28;20190;-76
2022/03/09 08:13:37;;;;;;;10.10;8.37;;;0.70;99.90;;;;;;5070035;28;20214;-72
2022/03/09 08:16:03;;;;;;;11.67;8.63;;;0.70;99.90;;;;;;5074868;28;20186;-73
2022/03/09 08:18:29;;;;;;;10.53;8.20;;;0.80;99.90;;;;;;5071292;28;20561;-73
2022/03/09 08:20:54;;;;;;;9.47;8.40;;;0.90;99.90;;;;;;5067925;28;20645;-72
2022/03/09 08:23:20;;;;;;;9.30;8.07;;;1.00;99.90;;;;;;5062588;28;20207;-72
2022/03/09 08:25:46;;;;;;;11.03;8.37;;;1.10;99.90;;;;;;5073563;28;20264;-71
2022/03/09 08:28:11;;;;;;;11.63;8.63;;;1.20;99.90;;;;;;5081955;28;20695;-74
2022/03/09 08:30:39;;;;;;;9.10;7.63;;;1.30;99.90;;;;;;5070611;28;20187;-75
2022/03/09 08:33:05;;;;;;;10.57;7.63;;;1.40;99.90;;;;;;5068191;28;20206;-75
2022/03/09 08:35:30;;;;;;;8.77;7.50;;;1.50;99.90;;;;;;5067027;28;20199;-75
2022/03/09 08:37:56;;;;;;;9.60;8.23;;;1.60;99.90;;;;;;5067555;28;20638;-75
2022/03/09 08:40:22;;;;;;;11.07;8.67;;;1.70;99.90;;;;;;5067122;28;20182;-72
2022/03/09 08:42:47;;;;;;;9.57;8.37;;;1.70;99.90;;;;;;5064791;28;20199;-71
2022/03/09 08:45:13;;;;;;;10.60;8.00;;;1.80;99.90;;;;;;5067323;28;20179;-71
2022/03/09 08:47:39;;;;;;;10.00;8.30;;;2.00;99.90;;;;;;5079184;28;20609;-72
2022/03/09 08:50:06;;;;;;;10.83;8.07;;;2.00;99.90;;;;;;5064632;28;20183;-70
2022/03/09 08:52:32;;;;;;;9.10;7.63;;;2.20;99.90;;;;;;5067767;28;20577;-72
2022/03/09 08:54:58;;;;;;;10.70;7.57;;;2.40;99.90;;;;;;5070454;28;20192;-72
2022/03/09 08:57:24;;;;;;;9.43;8.13;;;2.50;99.90;;;;;;5063934;28;20188;-72
2022/03/09 08:59:49;;;;;;;9.17;8.27;;;2.70;99.90;;;;;;5067691;28;20711;-73
2022/03/09 09:02:15;;;;;;;11.57;8.03;;;3.50;99.90;;;;;;5065522;28;20282;-73
2022/03/09 09:04:41;;;;;;;11.00;7.63;;;4.10;99.90;;;;;;5068995;28;20180;-75
2022/03/09 09:07:07;;;;;;;9.40;7.73;;;4.30;99.90;;;;;;5067677;28;20737;-75
2022/03/09 09:09:33;;;;;;;9.80;7.83;;;4.30;99.90;;;;;;5065702;28;20183;-76
2022/03/09 09:12:01;;;;;;;11.87;7.97;;;4.30;99.90;;;;;;5066815;28;20263;-76
2022/03/09 09:14:27;;;;;;;7.37;6.60;;;4.30;99.90;;;;;;5068487;28;20179;-75
2022/03/09 09:16:53;;;;;;;10.77;7.60;;;4.30;99.90;;;;;;5065385;28;20270;-76
2022/03/09 09:19:18;;;;;;;9.67;8.67;;;4.30;99.90;;;;;;5057583;28;20263;-75
2022/03/09 09:21:46;;;;;;;11.00;7.90;;;4.50;99.90;;;;;;5063944;28;20191;-74
2022/03/09 09:24:11;;;;;;;10.30;8.13;;;5.90;99.90;;;;;;5058327;28;20203;-77
2022/03/09 09:26:37;;;;;;;11.83;8.57;;;8.70;92.80;;;;;;5061981;28;20222;-75
2022/03/09 09:29:02;;;;;;;12.57;8.60;;;10.40;81.40;;;;;;5066311;28;20478;-75
2022/03/09 09:31:28;;;;;;;12.13;9.05;;;12.80;67.10;;;;;;5061199;28;20176;-75
2022/03/09 09:33:54;;;;;;;9.38;7.97;;;14.30;57.50;;;;;;5062559;28;20204;-76
2022/03/09 09:36:20;;;;;;;12.38;8.77;;;15.70;53.60;;;;;;5063187;28;20186;-74
2022/03/09 09:38:46;;;;;;;11.88;8.52;;;16.80;49.30;;;;;;5063397;28;20183;-78
2022/03/09 09:41:16;;;;;;;9.65;8.07;;;17.80;45.50;;;;;;5064265;28;20176;-79
2022/03/09 09:43:43;;;;;;;10.07;8.38;;;18.60;44.50;;;;;;5064137;28;20252;-87
2022/03/09 09:46:12;;;;;;;9.98;8.80;;;19.30;42.50;;;;;;5072503;28;20229;-78
2022/03/09 09:48:38;;;;;;;13.65;8.90;;;20.40;39.80;;;;;;5071363;28;20198;-77
2022/03/09 09:51:04;;;;;;;10.20;8.80;;;21.00;39.80;;;;;;5078403;28;20183;-78
2022/03/09 09:53:33;;;;;;;10.95;8.27;;;22.50;38.30;;;;;;5072019;28;20202;-78
2022/03/09 09:56:00;;;;;;;9.35;8.35;;;23.00;35.90;;;;;;5070685;28;20197;-79
2022/03/09 09:58:28;;;;;;;9.15;7.88;;;24.00;36.20;;;;;;5065594;28;20187;-79
2022/03/09 10:00:54;;;;;;;14.20;8.57;;;24.30;34.10;;;;;;5069857;28;20200;-79
2022/03/09 10:03:20;;;;;;;8.02;7.32;;;23.20;34.80;;;;;;5073546;28;20580;-78
2022/03/09 10:05:46;;;;;;;9.73;7.07;;;24.10;35.20;;;;;;5064114;28;20233;-82
2022/03/09 10:08:14;;;;;;;7.90;7.10;;;24.40;33.70;;;;;;5068714;28;20658;-78
2022/03/09 10:10:55;;;;;;;8.48;7.00;;;25.10;32.40;;;;;;5066669;28;20164;-77
2022/03/09 10:13:26;;;;;;;8.30;6.82;;;25.20;31.60;;;;;;5072318;28;20243;-77
2022/03/09 10:16:12;;;;;;;8.20;7.10;;;25.10;33.10;;;;;;5068457;28;20742;-77
2022/03/09 10:18:39;;;;;;;7.97;7.03;;;25.60;32.00;;;;;;5076429;28;20274;-76
2022/03/09 10:21:20;;;;;;;8.38;7.20;;;25.80;32.60;;;;;;5058639;28;20242;-77
2022/03/09 10:23:56;;;;;;;7.07;6.47;;;26.20;31.70;;;;;;5076306;28;20644;-76
2022/03/09 10:26:44;;;;;;;7.43;6.72;;;24.20;31.90;;;;;;5063140;28;20269;-76
2022/03/09 10:29:18;;;;;;;7.15;6.35;;;24.70;32.20;;;;;;5064916;28;20664;-75
2022/03/09 10:31:45;;;;;;;7.28;6.60;;;25.10;31.60;;;;;;5066647;28;20180;-75
2022/03/09 10:34:13;;;;;;;7.72;6.38;;;26.20;31.50;;;;;;5070498;28;20286;-77
2022/03/09 10:37:03;;;;;;;7.20;6.50;;;27.00;29.90;;;;;;5069202;28;20286;-77
2022/03/09 10:39:34;;;;;;;6.93;6.32;;;27.60;29.40;;;;;;5075100;28;20226;-77
2022/03/09 10:42:02;;;;;;;8.57;7.10;;;26.40;29.20;;;;;;5061155;28;20279;-76
2022/03/09 10:44:47;;;;;;;8.07;6.63;;;26.70;29.40;;;;;;5065277;28;20456;-76
2022/03/09 10:47:29;;;;;;;7.13;6.53;;;27.10;29.80;;;;;;5064108;28;20238;-77
2022/03/09 10:50:22;;;;;;;7.38;6.63;;;26.80;29.00;;;;;;5062683;28;20171;-75
2022/03/09 10:52:53;;;;;;;7.25;6.50;;;26.90;29.60;;;;;;5069890;28;20206;-75
2022/03/09 10:55:38;;;;;;;7.30;6.35;;;27.40;29.30;;;;;;5068073;28;20258;-76
2022/03/09 10:58:12;;;;;;;7.40;6.80;;;28.30;28.60;;;;;;5062500;28;20211;-77
2022/03/09 11:00:46;;;;;;;7.38;6.68;;;28.70;27.90;;;;;;5063519;28;20163;-74
2022/03/09 11:03:14;;;;;;;8.00;6.93;;;28.60;27.60;;;;;;5057717;28;20202;-77
2022/03/09 11:05:57;;;;;;;7.40;6.70;;;27.40;27.80;;;;;;5062270;28;20211;-77
2022/03/09 11:08:32;;;;;;;7.20;6.50;;;26.70;29.20;;;;;;5059635;28;20213;-77
2022/03/09 11:10:58;;;;;;;6.65;6.10;;;27.90;27.90;;;;;;5076458;28;20676;-78
2022/03/09 11:13:25;;;;;;;6.88;5.93;;;26.90;27.60;;;;;;5069497;28;20239;-78
2022/03/09 11:15:51;;;;;;;6.05;5.53;;;26.60;27.60;;;;;;5068430;28;20279;-78
2022/03/09 11:18:19;;;;;;;6.03;5.43;;;27.20;27.60;;;;;;5069206;28;20190;-78
2022/03/09 11:20:46;;;;;;;6.00;5.47;;;27.70;27.90;;;;;;5070526;28;20225;-78
2022/03/09 11:23:17;;;;;;;6.70;6.10;;;29.60;27.20;;;;;;5067665;28;20547;-77
2022/03/09 11:25:53;;;;;;;6.25;5.75;;;30.30;26.70;;;;;;5061823;28;20306;-78
2022/03/09 11:28:45;;;;;;;6.75;6.18;;;29.90;26.00;;;;;;5064165;28;20179;-78
2022/03/09 11:31:14;;;;;;;5.95;5.45;;;28.80;26.20;;;;;;5068510;28;20246;-76
2022/03/09 11:33:44;;;;;;;5.93;5.40;;;29.10;26.80;;;;;;5066879;28;20257;-74
2022/03/09 11:36:27;;;;;;;6.85;6.15;;;30.20;26.50;;;;;;5065012;28;20184;-74
2022/03/09 11:38:54;;;;;;;5.80;5.30;;;31.00;25.50;;;;;;5068328;28;20179;-73
2022/03/09 11:41:22;;;;;;;5.70;5.30;;;31.10;25.40;;;;;;5072546;28;20178;-73
2022/03/09 11:43:49;;;;;;;7.32;6.07;;;31.40;25.40;;;;;;5077317;28;20208;-73
2022/03/09 11:46:16;;;;;;;5.97;5.55;;;30.40;25.50;;;;;;5073326;28;20298;-73
2022/03/09 11:48:59;;;;;;;5.85;5.43;;;29.10;25.40;;;;;;5070853;28;20275;-74
2022/03/09 11:51:29;;;;;;;4.57;4.22;;;29.60;25.80;;;;;;5062418;28;20178;-73
2022/03/09 11:53:59;;;;;;;6.03;5.47;;;28.80;24.70;;;;;;5070560;28;20289;-73
2022/03/09 11:56:28;;;;;;;5.32;4.82;;;28.10;25.50;;;;;;5077561;28;20666;-73
2022/03/09 11:59:27;;;;;;;5.40;5.00;;;28.80;25.50;;;;;;5065401;28;20198;-73
2022/03/09 12:01:58;;;;;;;5.30;4.80;;;28.90;24.70;;;;;;5079162;28;20179;-73
2022/03/09 12:04:42;;;;;;;4.90;4.60;;;28.80;25.00;;;;;;5067160;28;20179;-73
2022/03/09 12:07:13;;;;;;;5.00;4.60;;;29.00;25.40;;;;;;5063709;28;20211;-73
2022/03/09 12:09:59;;;;;;;6.38;4.90;;;30.90;24.90;;;;;;5066837;28;20250;-73
2022/03/09 12:12:26;;;;;;;5.57;5.07;;;31.80;24.50;;;;;;5066839;28;20861;-74
2022/03/09 12:15:13;;;;;;;4.95;4.45;;;31.40;24.50;;;;;;5057917;28;20253;-73
2022/03/09 12:17:43;;;;;;;5.25;4.82;;;31.20;24.10;;;;;;5064477;28;20176;-74
2022/03/09 12:20:27;;;;;;;5.30;4.90;;;32.90;23.80;;;;;;5065675;28;20669;-74
2022/03/09 12:22:56;;;;;;;5.88;4.97;;;33.80;23.40;;;;;;5070753;28;20218;-74
2022/03/09 12:25:44;;;;;;;5.10;4.55;;;34.20;22.60;;;;;;5060495;28;20603;-76
2022/03/09 12:28:25;;;;;;;4.78;4.45;;;34.00;23.00;;;;;;5063647;28;20182;-72
2022/03/09 12:30:57;;;;;;;5.18;4.68;;;33.60;22.80;;;;;;5077678;28;20202;-72
2022/03/09 12:33:39;;;;;;;5.20;4.70;;;31.90;23.70;;;;;;5066701;28;20199;-74
2022/03/09 12:36:10;;;;;;;5.60;4.70;;;30.10;23.40;;;;;;5067324;28;20201;-74
2022/03/09 12:38:45;;;;;;;5.78;4.57;;;30.30;24.80;;;;;;5060677;28;20286;-74
2022/03/09 12:41:26;;;;;;;5.38;4.72;;;29.30;25.50;;;;;;5068110;28;20190;-76
2022/03/09 12:43:54;;;;;;;5.25;4.40;;;28.60;25.80;;;;;;5070705;28;20211;-75
2022/03/09 12:46:20;;;;;;;4.35;4.05;;;28.80;25.30;;;;;;5063431;28;20214;-74
2022/03/09 12:48:45;;;;;;;4.90;4.45;;;29.50;24.00;;;;;;5059706;28;20203;-74